createdAt,value
2017-05-01T00:00:10.234Z,0
2017-05-01T00:00:50.986Z,0
2017-05-01T00:01:31.742Z,0
2017-05-01T00:02:12.497Z,0
2017-05-01T00:02:53.263Z,0
2017-05-01T00:03:34.017Z,0
2017-05-01T00:04:14.795Z,0
2017-05-01T00:04:55.542Z,0
2017-05-01T00:05:36.276Z,0
2017-05-01T00:06:17.046Z,0
2017-05-01T00:06:57.803Z,0
2017-05-01T00:07:38.552Z,0
2017-05-01T00:08:19.305Z,0
2017-05-01T00:08:59.973Z,0
2017-05-01T00:09:40.654Z,0
2017-05-01T00:10:21.231Z,0
2017-05-01T00:11:02.011Z,0
2017-05-01T00:11:42.781Z,0
2017-05-01T00:12:23.574Z,0
2017-05-01T00:13:04.146Z,0
2017-05-01T00:13:44.820Z,0
2017-05-01T00:14:25.585Z,0
2017-05-01T00:15:06.334Z,0
2017-05-01T00:15:47.098Z,0
2017-05-01T00:16:27.849Z,0
2017-05-01T00:17:08.603Z,0
2017-05-01T00:17:49.376Z,0
2017-05-01T00:18:30.121Z,0
2017-05-01T00:19:10.874Z,0
2017-05-01T00:19:51.622Z,0
2017-05-01T00:20:32.379Z,0
2017-05-01T00:21:13.133Z,0
2017-05-01T00:21:53.890Z,0
2017-05-01T00:22:34.666Z,0
2017-05-01T00:23:15.400Z,0
2017-05-01T00:23:56.158Z,0
2017-05-01T00:24:36.727Z,0
2017-05-01T00:25:17.410Z,0
2017-05-01T00:25:58.132Z,0
2017-05-01T00:26:38.688Z,0
2017-05-01T00:27:19.322Z,0
2017-05-01T00:28:00.069Z,0
2017-05-01T00:28:40.629Z,0
2017-05-01T00:29:21.408Z,0
2017-05-01T00:30:02.137Z,0
2017-05-01T00:30:42.720Z,0
2017-05-01T00:31:23.442Z,0
2017-05-01T00:32:04.201Z,0
2017-05-01T00:32:44.789Z,0
2017-05-01T00:33:25.529Z,0
2017-05-01T00:34:06.337Z,0
2017-05-01T00:34:47.062Z,0
2017-05-01T00:35:27.634Z,0
2017-05-01T00:36:08.326Z,0
2017-05-01T00:36:49.101Z,0
2017-05-01T00:37:29.873Z,0
2017-05-01T00:38:10.497Z,0
2017-05-01T00:38:52.175Z,0
2017-05-01T00:39:32.950Z,0
2017-05-01T00:40:13.712Z,0
2017-05-01T00:40:54.505Z,0
2017-05-01T00:41:35.296Z,0
2017-05-01T00:42:16.041Z,0
2017-05-01T00:42:56.842Z,0
2017-05-01T00:43:38.173Z,0
2017-05-01T00:44:18.935Z,0
2017-05-01T00:44:59.683Z,0
2017-05-01T00:45:40.427Z,0
2017-05-01T00:46:21.181Z,0
2017-05-01T00:47:01.946Z,0
2017-05-01T00:47:42.695Z,0
2017-05-01T00:48:23.450Z,0
2017-05-01T00:49:04.206Z,0
2017-05-01T00:49:44.971Z,0
2017-05-01T00:50:25.729Z,0
2017-05-01T00:51:06.478Z,0
2017-05-01T00:51:47.252Z,0
2017-05-01T00:52:27.989Z,0
2017-05-01T00:53:08.637Z,0
2017-05-01T00:53:49.338Z,0
2017-05-01T00:54:30.172Z,0
2017-05-01T00:55:10.854Z,0
2017-05-01T00:55:51.427Z,0
2017-05-01T00:56:32.130Z,0
2017-05-01T00:57:12.762Z,0
2017-05-01T00:57:53.463Z,0
2017-05-01T00:58:34.091Z,0
2017-05-01T00:59:14.742Z,0
2017-05-01T00:59:55.392Z,0
2017-05-01T01:00:36.029Z,0
2017-05-01T01:01:16.691Z,0
2017-05-01T01:01:57.383Z,0
2017-05-01T01:02:38.005Z,0
2017-05-01T01:03:18.653Z,0
2017-05-01T01:03:59.301Z,0
2017-05-01T01:04:40.476Z,0
2017-05-01T01:05:21.150Z,0
2017-05-01T01:06:01.785Z,0
2017-05-01T01:06:42.441Z,0
2017-05-01T01:07:23.083Z,0
2017-05-01T01:08:03.735Z,0
2017-05-01T01:08:44.370Z,0
2017-05-01T01:09:25.043Z,0
2017-05-01T01:10:05.710Z,0
2017-05-01T01:10:46.341Z,0
2017-05-01T01:11:26.988Z,0
2017-05-01T01:12:07.654Z,0
2017-05-01T01:12:48.338Z,0
2017-05-01T01:13:29.010Z,0
2017-05-01T01:14:09.585Z,0
2017-05-01T01:14:50.289Z,0
2017-05-01T01:15:30.965Z,0
2017-05-01T01:16:11.542Z,0
2017-05-01T01:16:53.172Z,0
2017-05-01T01:17:33.824Z,0
2017-05-01T01:18:14.392Z,0
2017-05-01T01:18:56.116Z,0
2017-05-01T01:19:36.805Z,0
2017-05-01T01:20:17.507Z,0
2017-05-01T01:20:58.080Z,0
2017-05-01T01:21:38.807Z,0
2017-05-01T01:22:19.523Z,0
2017-05-01T01:23:00.170Z,0
2017-05-01T01:23:40.736Z,0
2017-05-01T01:24:21.395Z,0
2017-05-01T01:25:02.042Z,0
2017-05-01T01:25:42.631Z,0
2017-05-01T01:26:23.360Z,0
2017-05-01T01:27:04.042Z,0
2017-05-01T01:27:44.627Z,0
2017-05-01T01:28:25.261Z,0
2017-05-01T01:29:05.893Z,0
2017-05-01T01:29:46.553Z,0
2017-05-01T01:30:27.204Z,0
2017-05-01T01:31:08.881Z,0
2017-05-01T01:31:49.536Z,0
2017-05-01T01:32:30.186Z,0
2017-05-01T01:33:10.842Z,0
2017-05-01T01:33:51.480Z,0
2017-05-01T01:34:32.085Z,0
2017-05-01T01:35:12.653Z,0
2017-05-01T01:35:53.343Z,0
2017-05-01T01:36:33.998Z,0
2017-05-01T01:37:14.609Z,0
2017-05-01T01:37:55.194Z,0
2017-05-01T01:38:35.911Z,0
2017-05-01T01:39:16.513Z,0
2017-05-01T01:39:57.078Z,0
2017-05-01T01:40:37.721Z,0
2017-05-01T01:41:18.370Z,0
2017-05-01T01:41:59.022Z,0
2017-05-01T01:42:39.666Z,0
2017-05-01T01:43:21.358Z,0
2017-05-01T01:44:01.999Z,0
2017-05-01T01:44:43.575Z,0
2017-05-01T01:45:24.221Z,0
2017-05-01T01:46:04.874Z,0
2017-05-01T01:46:45.533Z,0
2017-05-01T01:47:27.202Z,0
2017-05-01T01:48:07.857Z,0
2017-05-01T01:48:48.529Z,0
2017-05-01T01:49:30.182Z,0
2017-05-01T01:50:10.848Z,0
2017-05-01T01:50:52.524Z,0
2017-05-01T01:51:33.176Z,0
2017-05-01T01:52:13.846Z,0
2017-05-01T01:52:54.478Z,0
2017-05-01T01:53:35.138Z,0
2017-05-01T01:54:15.724Z,0
2017-05-01T01:54:56.307Z,0
2017-05-01T01:55:36.887Z,0
2017-05-01T01:56:17.543Z,0
2017-05-01T01:56:58.131Z,0
2017-05-01T01:57:38.697Z,0
2017-05-01T01:58:19.314Z,0
2017-05-01T01:58:59.954Z,0
2017-05-01T01:59:40.525Z,0
2017-05-01T02:00:21.165Z,0
2017-05-01T02:01:01.811Z,0
2017-05-01T02:01:42.386Z,0
2017-05-01T02:02:23.007Z,0
2017-05-01T02:03:03.677Z,0
2017-05-01T02:03:44.305Z,0
2017-05-01T02:04:25.687Z,0
2017-05-01T02:05:06.335Z,0
2017-05-01T02:05:47.023Z,0
2017-05-01T02:06:27.594Z,0
2017-05-01T02:07:08.223Z,0
2017-05-01T02:07:48.844Z,0
2017-05-01T02:08:29.435Z,0
2017-05-01T02:09:10.002Z,0
2017-05-01T02:09:50.605Z,0
2017-05-01T02:10:31.174Z,0
2017-05-01T02:11:11.805Z,0
2017-05-01T02:11:52.451Z,0
2017-05-01T02:12:33.042Z,0
2017-05-01T02:13:13.654Z,0
2017-05-01T02:13:54.302Z,0
2017-05-01T02:14:34.901Z,0
2017-05-01T02:15:15.521Z,0
2017-05-01T02:15:56.160Z,0
2017-05-01T02:16:36.812Z,0
2017-05-01T02:17:17.458Z,0
2017-05-01T02:17:58.116Z,0
2017-05-01T02:18:38.782Z,0
2017-05-01T02:19:19.456Z,0
2017-05-01T02:20:00.075Z,0
2017-05-01T02:20:40.732Z,0
2017-05-01T02:21:21.412Z,0
2017-05-01T02:22:02.046Z,0
2017-05-01T02:22:42.714Z,0
2017-05-01T02:23:23.350Z,0
2017-05-01T02:24:04.015Z,0
2017-05-01T02:24:44.657Z,0
2017-05-01T02:25:26.325Z,0
2017-05-01T02:26:06.987Z,0
2017-05-01T02:26:47.621Z,0
2017-05-01T02:27:28.287Z,0
2017-05-01T02:28:08.944Z,0
2017-05-01T02:28:49.596Z,0
2017-05-01T02:29:30.249Z,0
2017-05-01T02:30:10.897Z,0
2017-05-01T02:30:52.597Z,0
2017-05-01T02:31:33.232Z,0
2017-05-01T02:32:13.877Z,0
2017-05-01T02:32:54.539Z,0
2017-05-01T02:33:35.200Z,0
2017-05-01T02:34:15.838Z,0
2017-05-01T02:34:56.402Z,0
2017-05-01T02:35:37.043Z,0
2017-05-01T02:36:17.718Z,0
2017-05-01T02:36:58.337Z,0
2017-05-01T02:37:38.995Z,0
2017-05-01T02:38:19.655Z,0
2017-05-01T02:39:00.276Z,0
2017-05-01T02:39:40.848Z,0
2017-05-01T02:40:21.511Z,0
2017-05-01T02:41:02.091Z,0
2017-05-01T02:41:42.723Z,0
2017-05-01T02:42:23.366Z,0
2017-05-01T02:43:03.936Z,0
2017-05-01T02:43:44.559Z,0
2017-05-01T02:44:25.221Z,0
2017-05-01T02:45:05.865Z,0
2017-05-01T02:45:46.539Z,0
2017-05-01T02:46:27.214Z,0
2017-05-01T02:47:07.828Z,0
2017-05-01T02:47:48.475Z,0
2017-05-01T02:48:29.162Z,0
2017-05-01T02:49:09.788Z,0
2017-05-01T02:49:50.485Z,0
2017-05-01T02:50:31.068Z,0
2017-05-01T02:51:11.668Z,0
2017-05-01T02:51:52.313Z,0
2017-05-01T02:52:32.889Z,0
2017-05-01T02:53:13.485Z,0
2017-05-01T02:53:54.171Z,0
2017-05-01T02:54:34.802Z,0
2017-05-01T02:55:15.503Z,0
2017-05-01T02:55:56.085Z,0
2017-05-01T02:56:36.684Z,0
2017-05-01T02:57:17.540Z,0
2017-05-01T02:57:58.113Z,0
2017-05-01T02:58:38.667Z,0
2017-05-01T02:59:19.292Z,0
2017-05-01T02:59:59.929Z,0
2017-05-01T03:00:40.580Z,0
2017-05-01T03:01:21.227Z,0
2017-05-01T03:02:01.882Z,0
2017-05-01T03:02:42.533Z,0
2017-05-01T03:03:23.198Z,0
2017-05-01T03:04:03.845Z,0
2017-05-01T03:04:44.419Z,0
2017-05-01T03:05:25.051Z,0
2017-05-01T03:06:05.618Z,0
2017-05-01T03:06:46.209Z,0
2017-05-01T03:07:26.802Z,0
2017-05-01T03:08:07.463Z,0
2017-05-01T03:08:48.047Z,0
2017-05-01T03:09:28.672Z,0
2017-05-01T03:10:09.329Z,0
2017-05-01T03:10:49.976Z,0
2017-05-01T03:11:30.614Z,0
2017-05-01T03:12:11.271Z,0
2017-05-01T03:12:51.926Z,0
2017-05-01T03:13:32.584Z,0
2017-05-01T03:14:13.229Z,0
2017-05-01T03:14:53.824Z,0
2017-05-01T03:15:34.416Z,0
2017-05-01T03:16:15.101Z,0
2017-05-01T03:16:55.756Z,0
2017-05-01T03:17:36.439Z,0
2017-05-01T03:18:17.017Z,0
2017-05-01T03:18:57.713Z,0
2017-05-01T03:19:38.353Z,0
2017-05-01T03:20:20.042Z,0
2017-05-01T03:21:00.673Z,0
2017-05-01T03:21:41.336Z,0
2017-05-01T03:22:21.988Z,0
2017-05-01T03:23:02.635Z,0
2017-05-01T03:23:43.283Z,0
2017-05-01T03:24:23.963Z,0
2017-05-01T03:25:04.600Z,0
2017-05-01T03:25:45.260Z,0
2017-05-01T03:26:25.919Z,0
2017-05-01T03:27:06.557Z,0
2017-05-01T03:27:47.212Z,0
2017-05-01T03:28:27.866Z,0
2017-05-01T03:29:08.508Z,0
2017-05-01T03:29:49.103Z,0
2017-05-01T03:30:29.657Z,0
2017-05-01T03:31:10.271Z,0
2017-05-01T03:31:50.924Z,0
2017-05-01T03:32:31.610Z,0
2017-05-01T03:33:12.180Z,0
2017-05-01T03:33:52.781Z,0
2017-05-01T03:34:33.435Z,0
2017-05-01T03:35:15.043Z,0
2017-05-01T03:35:55.610Z,0
2017-05-01T03:36:36.212Z,0
2017-05-01T03:37:16.854Z,0
2017-05-01T03:38:02.054Z,0
2017-05-01T03:38:42.623Z,0
2017-05-01T03:39:24.249Z,0
2017-05-01T03:40:04.898Z,0
2017-05-01T03:40:45.466Z,0
2017-05-01T03:41:28.158Z,0
2017-05-01T03:42:08.808Z,0
2017-05-01T03:42:49.379Z,0
2017-05-01T03:43:30.002Z,0
2017-05-01T03:44:10.661Z,0
2017-05-01T03:44:52.016Z,0
2017-05-01T03:45:32.575Z,0
2017-05-01T03:46:13.329Z,0
2017-05-01T03:46:54.078Z,0
2017-05-01T03:47:34.773Z,0
2017-05-01T03:48:15.330Z,0
2017-05-01T03:48:56.038Z,0
2017-05-01T03:49:36.785Z,0
2017-05-01T03:50:17.554Z,0
2017-05-01T03:50:58.208Z,0
2017-05-01T03:51:38.868Z,0
2017-05-01T03:52:19.443Z,0
2017-05-01T03:53:00.081Z,0
2017-05-01T03:53:40.726Z,0
2017-05-01T03:54:21.374Z,0
2017-05-01T03:55:01.943Z,0
2017-05-01T03:55:42.684Z,0
2017-05-01T03:56:23.264Z,0
2017-05-01T03:57:03.820Z,0
2017-05-01T03:57:44.528Z,0
2017-05-01T03:58:25.185Z,0
2017-05-01T03:59:05.750Z,0
2017-05-01T03:59:46.496Z,0
2017-05-01T04:00:27.237Z,0
2017-05-01T04:01:07.900Z,0
2017-05-01T04:01:48.490Z,0
2017-05-01T04:02:29.106Z,0
2017-05-01T04:03:09.763Z,0
2017-05-01T04:03:56.015Z,0
2017-05-01T04:04:36.700Z,0
2017-05-01T04:05:17.337Z,0
2017-05-01T04:05:57.997Z,0
2017-05-01T04:06:39.676Z,0
2017-05-01T04:07:20.324Z,5
2017-05-01T04:08:01.015Z,5
2017-05-01T04:08:41.638Z,5
2017-05-01T04:09:22.278Z,5
2017-05-01T04:10:02.887Z,5
2017-05-01T04:10:43.492Z,5
2017-05-01T04:11:24.139Z,5
2017-05-01T04:12:04.699Z,5
2017-05-01T04:12:45.362Z,5
2017-05-01T04:13:25.994Z,5
2017-05-01T04:14:06.564Z,5
2017-05-01T04:14:48.012Z,5
2017-05-01T04:15:28.680Z,5
2017-05-01T04:16:09.270Z,5
2017-05-01T04:16:49.835Z,5
2017-05-01T04:17:30.430Z,5
2017-05-01T04:18:11.082Z,10
2017-05-01T04:18:51.674Z,10
2017-05-01T04:19:32.241Z,10
2017-05-01T04:20:12.839Z,10
2017-05-01T04:20:53.485Z,10
2017-05-01T04:21:34.078Z,10
2017-05-01T04:22:14.659Z,10
2017-05-01T04:22:55.255Z,10
2017-05-01T04:23:35.892Z,10
2017-05-01T04:24:16.489Z,10
2017-05-01T04:24:57.139Z,15
2017-05-01T04:25:37.793Z,15
2017-05-01T04:26:18.449Z,15
2017-05-01T04:26:59.101Z,15
2017-05-01T04:27:39.756Z,15
2017-05-01T04:28:20.402Z,15
2017-05-01T04:29:01.054Z,15
2017-05-01T04:29:41.604Z,20
2017-05-01T04:30:22.217Z,20
2017-05-01T04:31:02.780Z,20
2017-05-01T04:31:43.413Z,20
2017-05-01T04:32:24.090Z,20
2017-05-01T04:33:04.666Z,25
2017-05-01T04:33:45.277Z,25
2017-05-01T04:34:25.945Z,25
2017-05-01T04:35:06.597Z,25
2017-05-01T04:35:47.249Z,25
2017-05-01T04:36:27.829Z,25
2017-05-01T04:37:08.446Z,25
2017-05-01T04:37:49.087Z,25
2017-05-01T04:38:29.750Z,25
2017-05-01T04:39:10.413Z,25
2017-05-01T04:39:50.986Z,30
2017-05-01T04:40:31.608Z,30
2017-05-01T04:41:12.259Z,30
2017-05-01T04:41:52.814Z,30
2017-05-01T04:42:33.469Z,30
2017-05-01T04:43:14.110Z,30
2017-05-01T04:43:54.655Z,30
2017-05-01T04:44:35.320Z,30
2017-05-01T04:45:15.966Z,35
2017-05-01T04:45:56.556Z,35
2017-05-01T04:46:37.142Z,40
2017-05-01T04:47:17.819Z,40
2017-05-01T04:47:58.472Z,40
2017-05-01T04:48:39.064Z,40
2017-05-01T04:49:19.680Z,35
2017-05-01T04:50:00.324Z,35
2017-05-01T04:50:40.980Z,35
2017-05-01T04:51:21.544Z,35
2017-05-01T04:52:02.188Z,35
2017-05-01T04:52:42.846Z,35
2017-05-01T04:53:23.498Z,35
2017-05-01T04:54:04.149Z,35
2017-05-01T04:54:44.794Z,35
2017-05-01T04:55:25.447Z,35
2017-05-01T04:56:06.035Z,35
2017-05-01T04:56:46.610Z,35
2017-05-01T04:57:27.191Z,40
2017-05-01T04:58:07.853Z,40
2017-05-01T04:58:48.443Z,40
2017-05-01T04:59:29.005Z,40
2017-05-01T05:00:09.610Z,45
2017-05-01T05:00:50.187Z,45
2017-05-01T05:01:30.823Z,45
2017-05-01T05:02:11.475Z,45
2017-05-01T05:02:52.044Z,45
2017-05-01T05:03:32.670Z,45
2017-05-01T05:04:13.321Z,45
2017-05-01T05:04:53.890Z,45
2017-05-01T05:05:34.525Z,50
2017-05-01T05:06:15.177Z,50
2017-05-01T05:06:55.767Z,50
2017-05-01T05:07:36.340Z,55
2017-05-01T05:08:16.916Z,55
2017-05-01T05:08:58.519Z,55
2017-05-01T05:09:39.198Z,60
2017-05-01T05:10:19.800Z,60
2017-05-01T05:11:00.487Z,65
2017-05-01T05:11:41.119Z,65
2017-05-01T05:12:21.770Z,65
2017-05-01T05:13:02.413Z,70
2017-05-01T05:13:43.077Z,70
2017-05-01T05:14:23.737Z,70
2017-05-01T05:15:04.382Z,70
2017-05-01T05:15:45.024Z,70
2017-05-01T05:16:25.681Z,75
2017-05-01T05:17:06.332Z,75
2017-05-01T05:17:46.984Z,75
2017-05-01T05:18:27.647Z,75
2017-05-01T05:19:08.301Z,75
2017-05-01T05:19:48.942Z,75
2017-05-01T05:20:29.595Z,75
2017-05-01T05:21:10.254Z,75
2017-05-01T05:21:50.913Z,75
2017-05-01T05:22:31.566Z,75
2017-05-01T05:23:12.211Z,75
2017-05-01T05:23:52.871Z,70
2017-05-01T05:24:33.528Z,70
2017-05-01T05:25:15.196Z,70
2017-05-01T05:25:55.854Z,70
2017-05-01T05:26:36.503Z,70
2017-05-01T05:27:17.171Z,70
2017-05-01T05:27:57.808Z,65
2017-05-01T05:28:38.468Z,65
2017-05-01T05:29:19.113Z,65
2017-05-01T05:29:59.707Z,60
2017-05-01T05:30:40.274Z,60
2017-05-01T05:31:20.887Z,60
2017-05-01T05:32:01.518Z,60
2017-05-01T05:32:42.212Z,60
2017-05-01T05:33:22.794Z,60
2017-05-01T05:34:03.469Z,60
2017-05-01T05:34:44.138Z,55
2017-05-01T05:35:25.605Z,55
2017-05-01T05:36:06.172Z,55
2017-05-01T05:36:46.742Z,55
2017-05-01T05:37:27.366Z,55
2017-05-01T05:38:08.032Z,55
2017-05-01T05:38:48.728Z,50
2017-05-01T05:39:29.289Z,50
2017-05-01T05:40:10.037Z,50
2017-05-01T05:40:50.764Z,50
2017-05-01T05:41:31.404Z,50
2017-05-01T05:42:12.057Z,55
2017-05-01T05:42:53.725Z,55
2017-05-01T05:43:34.377Z,55
2017-05-01T05:44:15.035Z,55
2017-05-01T05:44:55.723Z,60
2017-05-01T05:45:36.330Z,60
2017-05-01T05:46:16.999Z,60
2017-05-01T05:46:57.655Z,60
2017-05-01T05:47:38.341Z,65
2017-05-01T05:48:18.898Z,65
2017-05-01T05:48:59.517Z,65
2017-05-01T05:49:40.254Z,65
2017-05-01T05:50:20.958Z,65
2017-05-01T05:51:01.557Z,65
2017-05-01T05:51:42.225Z,65
2017-05-01T05:52:22.863Z,65
2017-05-01T05:53:03.565Z,65
2017-05-01T05:53:44.167Z,70
2017-05-01T05:54:24.828Z,70
2017-05-01T05:55:05.498Z,70
2017-05-01T05:55:46.145Z,75
2017-05-01T05:56:26.787Z,75
2017-05-01T05:57:07.438Z,80
2017-05-01T05:57:48.089Z,80
2017-05-01T05:58:28.744Z,80
2017-05-01T05:59:09.390Z,85
2017-05-01T05:59:49.942Z,85
2017-05-01T06:00:30.607Z,85
2017-05-01T06:01:11.253Z,85
2017-05-01T06:01:51.821Z,90
2017-05-01T06:02:32.399Z,90
2017-05-01T06:03:13.092Z,90
2017-05-01T06:03:53.770Z,90
2017-05-01T06:04:34.349Z,90
2017-05-01T06:05:14.959Z,90
2017-05-01T06:05:55.612Z,85
2017-05-01T06:06:36.187Z,80
2017-05-01T06:07:16.840Z,80
2017-05-01T06:07:57.481Z,80
2017-05-01T06:08:38.127Z,75
2017-05-01T06:09:18.821Z,75
2017-05-01T06:09:59.381Z,75
2017-05-01T06:10:39.986Z,75
2017-05-01T06:11:20.640Z,80
2017-05-01T06:12:01.300Z,80
2017-05-01T06:12:41.955Z,80
2017-05-01T06:13:22.608Z,80
2017-05-01T06:14:03.242Z,85
2017-05-01T06:14:43.897Z,85
2017-05-01T06:15:24.564Z,85
2017-05-01T06:16:05.219Z,85
2017-05-01T06:16:45.881Z,85
2017-05-01T06:17:26.525Z,85
2017-05-01T06:18:07.174Z,90
2017-05-01T06:18:48.846Z,90
2017-05-01T06:19:29.506Z,90
2017-05-01T06:20:10.194Z,90
2017-05-01T06:20:51.876Z,90
2017-05-01T06:21:32.661Z,90
2017-05-01T06:22:13.336Z,90
2017-05-01T06:22:54.041Z,90
2017-05-01T06:23:34.655Z,95
2017-05-01T06:24:15.213Z,95
2017-05-01T06:24:55.787Z,100
2017-05-01T06:25:36.419Z,105
2017-05-01T06:26:17.064Z,110
2017-05-01T06:26:57.712Z,110
2017-05-01T06:27:38.360Z,110
2017-05-01T06:28:19.020Z,105
2017-05-01T06:28:59.678Z,100
2017-05-01T06:29:40.345Z,100
2017-05-01T06:30:20.986Z,95
2017-05-01T06:31:01.636Z,95
2017-05-01T06:31:42.284Z,90
2017-05-01T06:32:22.941Z,90
2017-05-01T06:33:03.596Z,90
2017-05-01T06:33:44.264Z,90
2017-05-01T06:34:24.893Z,90
2017-05-01T06:35:05.467Z,90
2017-05-01T06:35:46.255Z,90
2017-05-01T06:36:26.820Z,90
2017-05-01T06:37:07.403Z,90
2017-05-01T06:37:47.978Z,90
2017-05-01T06:38:28.607Z,85
2017-05-01T06:39:09.267Z,85
2017-05-01T06:39:49.851Z,85
2017-05-01T06:40:30.472Z,85
2017-05-01T06:41:11.124Z,90
2017-05-01T06:41:51.817Z,90
2017-05-01T06:42:32.393Z,90
2017-05-01T06:43:13.080Z,90
2017-05-01T06:43:53.724Z,90
2017-05-01T06:44:34.321Z,90
2017-05-01T06:45:14.895Z,90
2017-05-01T06:45:55.502Z,90
2017-05-01T06:46:36.060Z,95
2017-05-01T06:47:16.694Z,95
2017-05-01T06:47:57.353Z,95
2017-05-01T06:48:37.996Z,95
2017-05-01T06:49:18.641Z,95
2017-05-01T06:49:59.310Z,95
2017-05-01T06:50:39.878Z,95
2017-05-01T06:51:20.522Z,95
2017-05-01T06:52:01.160Z,95
2017-05-01T06:52:41.735Z,100
2017-05-01T06:53:22.891Z,100
2017-05-01T06:54:03.454Z,105
2017-05-01T06:54:44.127Z,105
2017-05-01T06:55:24.782Z,110
2017-05-01T06:56:05.436Z,110
2017-05-01T06:56:46.086Z,110
2017-05-01T06:57:26.739Z,110
2017-05-01T06:58:07.390Z,110
2017-05-01T06:58:47.948Z,110
2017-05-01T06:59:28.655Z,110
2017-05-01T07:00:09.312Z,110
2017-05-01T07:00:49.955Z,115
2017-05-01T07:01:30.614Z,115
2017-05-01T07:02:11.180Z,115
2017-05-01T07:02:51.818Z,120
2017-05-01T07:03:32.479Z,120
2017-05-01T07:04:15.187Z,125
2017-05-01T07:04:55.818Z,125
2017-05-01T07:05:37.506Z,130
2017-05-01T07:06:18.173Z,130
2017-05-01T07:06:58.801Z,135
2017-05-01T07:07:39.461Z,140
2017-05-01T07:08:20.118Z,140
2017-05-01T07:09:00.876Z,140
2017-05-01T07:09:43.575Z,145
2017-05-01T07:10:24.225Z,145
2017-05-01T07:11:04.897Z,145
2017-05-01T07:11:45.535Z,150
2017-05-01T07:12:26.188Z,150
2017-05-01T07:13:07.863Z,150
2017-05-01T07:13:48.519Z,150
2017-05-01T07:14:30.201Z,155
2017-05-01T07:15:11.884Z,155
2017-05-01T07:15:52.522Z,160
2017-05-01T07:16:33.270Z,160
2017-05-01T07:17:13.931Z,160
2017-05-01T07:17:54.591Z,160
2017-05-01T07:18:35.238Z,165
2017-05-01T07:19:15.896Z,165
2017-05-01T07:19:56.649Z,165
2017-05-01T07:20:37.221Z,170
2017-05-01T07:21:17.852Z,170
2017-05-01T07:21:58.502Z,170
2017-05-01T07:22:39.152Z,170
2017-05-01T07:23:20.835Z,175
2017-05-01T07:24:01.487Z,175
2017-05-01T07:24:42.143Z,175
2017-05-01T07:25:22.827Z,180
2017-05-01T07:26:03.396Z,180
2017-05-01T07:26:43.995Z,180
2017-05-01T07:27:25.646Z,180
2017-05-01T07:28:06.229Z,185
2017-05-01T07:28:46.879Z,185
2017-05-01T07:29:27.528Z,185
2017-05-01T07:30:08.121Z,180
2017-05-01T07:30:48.682Z,180
2017-05-01T07:31:29.288Z,180
2017-05-01T07:32:09.989Z,180
2017-05-01T07:32:50.631Z,175
2017-05-01T07:33:31.207Z,175
2017-05-01T07:34:11.788Z,175
2017-05-01T07:34:52.462Z,170
2017-05-01T07:35:33.095Z,170
2017-05-01T07:36:13.741Z,170
2017-05-01T07:36:54.410Z,165
2017-05-01T07:37:35.052Z,160
2017-05-01T07:38:15.698Z,160
2017-05-01T07:38:56.373Z,155
2017-05-01T07:39:37.019Z,150
2017-05-01T07:40:17.597Z,145
2017-05-01T07:40:58.233Z,140
2017-05-01T07:41:38.869Z,135
2017-05-01T07:42:19.453Z,130
2017-05-01T07:43:00.081Z,125
2017-05-01T07:43:40.846Z,120
2017-05-01T07:44:21.423Z,120
2017-05-01T07:45:02.040Z,115
2017-05-01T07:45:42.706Z,115
2017-05-01T07:46:23.274Z,110
2017-05-01T07:47:03.857Z,110
2017-05-01T07:47:44.445Z,110
2017-05-01T07:48:25.096Z,110
2017-05-01T07:49:05.669Z,105
2017-05-01T07:49:46.341Z,105
2017-05-01T07:50:26.902Z,105
2017-05-01T07:51:07.504Z,105
2017-05-01T07:51:48.156Z,105
2017-05-01T07:52:28.748Z,105
2017-05-01T07:53:09.311Z,110
2017-05-01T07:53:49.903Z,110
2017-05-01T07:54:30.557Z,110
2017-05-01T07:55:11.155Z,110
2017-05-01T07:55:51.736Z,115
2017-05-01T07:56:32.415Z,115
2017-05-01T07:57:13.073Z,115
2017-05-01T07:57:53.662Z,120
2017-05-01T07:58:34.239Z,120
2017-05-01T07:59:14.846Z,120
2017-05-01T07:59:55.584Z,125
2017-05-01T08:00:36.178Z,125
2017-05-01T08:01:16.758Z,130
2017-05-01T08:01:58.364Z,130
2017-05-01T08:02:39.060Z,135
2017-05-01T08:03:19.654Z,135
2017-05-01T08:04:01.243Z,135
2017-05-01T08:04:41.897Z,140
2017-05-01T08:05:22.590Z,140
2017-05-01T08:06:03.242Z,140
2017-05-01T08:06:43.892Z,145
2017-05-01T08:07:24.548Z,145
2017-05-01T08:08:05.202Z,150
2017-05-01T08:08:47.802Z,150
2017-05-01T08:09:28.450Z,150
2017-05-01T08:10:10.131Z,150
2017-05-01T08:10:50.808Z,150
2017-05-01T08:11:31.431Z,150
2017-05-01T08:12:12.089Z,150
2017-05-01T08:12:52.738Z,150
2017-05-01T08:13:33.442Z,150
2017-05-01T08:14:14.146Z,150
2017-05-01T08:14:54.800Z,150
2017-05-01T08:15:35.457Z,150
2017-05-01T08:16:16.108Z,150
2017-05-01T08:16:56.766Z,150
2017-05-01T08:17:37.370Z,150
2017-05-01T08:18:19.054Z,150
2017-05-01T08:18:59.723Z,150
2017-05-01T08:19:40.391Z,145
2017-05-01T08:20:21.054Z,145
2017-05-01T08:21:01.626Z,150
2017-05-01T08:21:42.213Z,150
2017-05-01T08:22:22.878Z,150
2017-05-01T08:23:03.568Z,155
2017-05-01T08:23:44.135Z,155
2017-05-01T08:24:24.846Z,160
2017-05-01T08:25:05.475Z,160
2017-05-01T08:25:46.164Z,165
2017-05-01T08:26:26.804Z,170
2017-05-01T08:27:07.436Z,170
2017-05-01T08:27:48.089Z,175
2017-05-01T08:28:28.744Z,180
2017-05-01T08:29:09.390Z,185
2017-05-01T08:29:50.124Z,190
2017-05-01T08:30:30.676Z,195
2017-05-01T08:31:11.357Z,195
2017-05-01T08:31:52.040Z,195
2017-05-01T08:32:32.633Z,200
2017-05-01T08:33:13.327Z,200
2017-05-01T08:33:53.970Z,205
2017-05-01T08:34:34.570Z,205
2017-05-01T08:35:16.186Z,210
2017-05-01T08:35:56.895Z,210
2017-05-01T08:36:37.494Z,210
2017-05-01T08:37:20.116Z,210
2017-05-01T08:38:00.756Z,210
2017-05-01T08:38:41.397Z,210
2017-05-01T08:39:22.094Z,210
2017-05-01T08:40:02.735Z,210
2017-05-01T08:40:44.523Z,210
2017-05-01T08:41:25.163Z,210
2017-05-01T08:42:05.796Z,210
2017-05-01T08:42:46.454Z,215
2017-05-01T08:43:27.097Z,215
2017-05-01T08:44:07.765Z,215
2017-05-01T08:44:48.430Z,215
2017-05-01T08:45:29.063Z,215
2017-05-01T08:46:09.730Z,215
2017-05-01T08:46:50.398Z,215
2017-05-01T08:47:31.135Z,220
2017-05-01T08:48:11.773Z,220
2017-05-01T08:48:52.440Z,220
2017-05-01T08:49:33.085Z,215
2017-05-01T08:50:13.754Z,210
2017-05-01T08:50:54.385Z,205
2017-05-01T08:51:35.042Z,200
2017-05-01T08:52:16.759Z,190
2017-05-01T08:52:57.329Z,180
2017-05-01T08:53:37.918Z,170
2017-05-01T08:54:18.516Z,165
2017-05-01T08:55:00.188Z,160
2017-05-01T08:55:40.841Z,155
2017-05-01T08:56:21.492Z,155
2017-05-01T08:57:02.113Z,155
2017-05-01T08:57:42.758Z,155
2017-05-01T08:58:23.406Z,155
2017-05-01T08:59:04.188Z,155
2017-05-01T08:59:44.827Z,155
2017-05-01T09:00:25.531Z,150
2017-05-01T09:01:06.151Z,140
2017-05-01T09:01:46.817Z,130
2017-05-01T09:02:27.486Z,120
2017-05-01T09:03:08.123Z,110
2017-05-01T09:03:48.792Z,105
2017-05-01T09:04:29.433Z,100
2017-05-01T09:05:10.080Z,100
2017-05-01T09:05:50.688Z,95
2017-05-01T09:06:31.521Z,95
2017-05-01T09:07:12.254Z,95
2017-05-01T09:07:53.918Z,95
2017-05-01T09:08:34.715Z,95
2017-05-01T09:09:15.495Z,90
2017-05-01T09:09:57.249Z,90
2017-05-01T09:10:37.940Z,90
2017-05-01T09:11:18.646Z,85
2017-05-01T09:11:59.274Z,85
2017-05-01T09:12:39.926Z,85
2017-05-01T09:13:20.690Z,80
2017-05-01T09:14:01.336Z,80
2017-05-01T09:14:41.988Z,80
2017-05-01T09:15:22.625Z,80
2017-05-01T09:16:03.407Z,80
2017-05-01T09:16:44.022Z,80
2017-05-01T09:17:24.701Z,80
2017-05-01T09:18:05.388Z,85
2017-05-01T09:18:45.973Z,85
2017-05-01T09:19:26.694Z,85
2017-05-01T09:20:07.293Z,85
2017-05-01T09:20:47.935Z,90
2017-05-01T09:21:28.617Z,90
2017-05-01T09:22:10.255Z,90
2017-05-01T09:22:50.907Z,90
2017-05-01T09:23:31.569Z,90
2017-05-01T09:24:12.224Z,90
2017-05-01T09:24:52.873Z,90
2017-05-01T09:25:33.527Z,90
2017-05-01T09:26:14.270Z,90
2017-05-01T09:26:54.926Z,95
2017-05-01T09:27:35.644Z,95
2017-05-01T09:28:17.308Z,95
2017-05-01T09:28:58.008Z,100
2017-05-01T09:29:38.718Z,100
2017-05-01T09:30:19.274Z,100
2017-05-01T09:30:59.908Z,100
2017-05-01T09:31:41.543Z,100
2017-05-01T09:32:23.167Z,100
2017-05-01T09:33:03.843Z,95
2017-05-01T09:33:44.478Z,95
2017-05-01T09:34:25.222Z,90
2017-05-01T09:35:05.888Z,85
2017-05-01T09:35:46.535Z,80
2017-05-01T09:36:27.298Z,80
2017-05-01T09:37:07.954Z,75
2017-05-01T09:37:48.596Z,75
2017-05-01T09:38:29.352Z,70
2017-05-01T09:39:10.003Z,70
2017-05-01T09:39:50.632Z,75
2017-05-01T09:40:31.284Z,75
2017-05-01T09:41:11.928Z,75
2017-05-01T09:41:52.575Z,75
2017-05-01T09:42:33.230Z,75
2017-05-01T09:43:13.879Z,75
2017-05-01T09:43:54.589Z,75
2017-05-01T09:44:35.292Z,75